createdAt,value
2022-11-05T00:04:41.977Z,985.9
2022-11-05T00:10:00.757Z,985.9
2022-11-05T00:15:19.983Z,986
2022-11-05T00:20:40.317Z,986.1
2022-11-05T00:25:58.234Z,986.1
2022-11-05T00:31:17.719Z,986.2
2022-11-05T00:36:37.855Z,986.2
2022-11-05T00:43:12.427Z,986.2
2022-11-05T00:47:15.232Z,986.3
2022-11-05T00:52:34.585Z,986.3
2022-11-05T00:57:54.085Z,986.5
2022-11-05T01:03:22.888Z,986.5
2022-11-05T01:08:32.322Z,986.5
2022-11-05T01:13:52.093Z,986.5
2022-11-05T01:19:12.018Z,986.6
2022-11-05T01:24:30.218Z,986.6
2022-11-05T01:29:50.091Z,986.7
2022-11-05T01:36:24.254Z,986.8
2022-11-05T01:40:38.871Z,986.8
2022-11-05T01:45:47.028Z,986.8
2022-11-05T01:51:06.324Z,986.8
2022-11-05T01:56:25.172Z,986.8
2022-11-05T02:01:45.066Z,986.8
2022-11-05T02:07:04.143Z,986.9
2022-11-05T02:12:31.660Z,986.9
2022-11-05T02:17:43.676Z,986.9
2022-11-05T02:23:02.308Z,986.9
2022-11-05T02:28:22.378Z,986.9
2022-11-05T02:33:41.983Z,987
2022-11-05T02:39:01.724Z,987
2022-11-05T02:44:20.345Z,987.1
2022-11-05T02:49:40.143Z,987.1
2022-11-05T02:55:00.233Z,987.1
2022-11-05T03:00:19.874Z,987.1
2022-11-05T03:05:38.516Z,987.1
2022-11-05T03:10:58.133Z,987.2
2022-11-05T03:16:17.711Z,987.3
2022-11-05T03:21:36.619Z,987.3
2022-11-05T03:26:55.181Z,987.4
2022-11-05T03:32:14.069Z,987.4
2022-11-05T03:37:33.625Z,987.4
2022-11-05T03:42:52.871Z,987.4
2022-11-05T03:48:11.912Z,987.5
2022-11-05T03:53:31.118Z,987.5
2022-11-05T03:58:48.917Z,987.6
2022-11-05T04:04:08.532Z,987.6
2022-11-05T04:09:27.931Z,987.7
2022-11-05T04:14:47.335Z,987.8
2022-11-05T04:20:06.376Z,987.8
2022-11-05T04:25:25.178Z,987.8
2022-11-05T04:30:44.644Z,987.9
2022-11-05T04:36:04.076Z,987.9
2022-11-05T04:41:23.977Z,987.9
2022-11-05T04:46:43.706Z,988
2022-11-05T04:53:17.865Z,988.1
2022-11-05T04:57:22.068Z,988.1
2022-11-05T05:02:40.798Z,988.1
2022-11-05T05:09:15.008Z,988.2
2022-11-05T05:13:19.049Z,988.3
2022-11-05T05:18:42.197Z,988.3
2022-11-05T05:23:58.310Z,988.4
2022-11-05T05:29:17.310Z,988.4
2022-11-05T05:34:35.472Z,988.5
2022-11-05T05:39:55.059Z,988.5
2022-11-05T05:45:14.739Z,988.5
2022-11-05T05:50:33.689Z,988.5
2022-11-05T05:55:52.913Z,988.6
2022-11-05T06:01:15.696Z,988.7
2022-11-05T06:06:31.660Z,988.7
2022-11-05T06:11:50.845Z,988.8
2022-11-05T06:17:09.553Z,988.9
2022-11-05T06:22:28.634Z,988.9
2022-11-05T06:27:47.915Z,989
2022-11-05T06:33:06.938Z,989.1
2022-11-05T06:38:26.566Z,989.1
2022-11-05T06:43:46.552Z,989.2
2022-11-05T06:49:05.130Z,989.3
2022-11-05T06:54:24.243Z,989.4
2022-11-05T06:59:43.325Z,989.5
2022-11-05T07:05:02.667Z,989.6
2022-11-05T07:10:21.818Z,989.7
2022-11-05T07:15:40.774Z,989.8
2022-11-05T07:21:01.174Z,989.9
2022-11-05T07:26:20.534Z,989.9
2022-11-05T07:32:54.750Z,990.1
2022-11-05T07:36:57.972Z,990.1
2022-11-05T07:42:17.423Z,990.2
2022-11-05T07:42:42.437Z,990.2
2022-11-05T07:48:02.028Z,990.3
2022-11-05T07:53:21.398Z,990.3
2022-11-05T07:58:40.162Z,990.4
2022-11-05T08:03:59.464Z,990.5
2022-11-05T08:09:18.943Z,990.5
2022-11-05T08:14:38.682Z,990.5
2022-11-05T08:19:57.049Z,990.6
2022-11-05T08:25:16.557Z,990.7
2022-11-05T08:30:34.704Z,990.7
2022-11-05T08:35:54.312Z,990.7
2022-11-05T08:41:13.651Z,990.7
2022-11-05T08:46:41.924Z,990.8
2022-11-05T08:51:52.360Z,990.9
2022-11-05T08:58:26.505Z,990.9
2022-11-05T09:02:29.521Z,990.9
2022-11-05T09:07:49.152Z,991
2022-11-05T09:13:13.208Z,991.1
2022-11-05T09:18:28.987Z,991.1
2022-11-05T09:23:47.408Z,991.1
2022-11-05T09:29:10.356Z,991.2
2022-11-05T09:34:26.424Z,991.2
2022-11-05T09:39:45.678Z,991.3
2022-11-05T09:45:05.330Z,991.3
2022-11-05T09:50:23.989Z,991.3
2022-11-05T09:55:43.818Z,991.4
2022-11-05T10:01:03.436Z,991.4
2022-11-05T10:06:22.256Z,991.5
2022-11-05T10:11:41.973Z,991.5
2022-11-05T10:17:01.693Z,991.5
2022-11-05T10:22:21.404Z,991.6
2022-11-05T10:27:41.126Z,991.6
2022-11-05T10:33:00.534Z,991.6
2022-11-05T10:38:18.783Z,991.6
2022-11-05T10:43:37.822Z,991.6
2022-11-05T10:48:57.572Z,991.7
2022-11-05T10:54:15.678Z,991.7
2022-11-05T10:59:35.247Z,991.6
2022-11-05T11:04:54.497Z,991.6
2022-11-05T11:10:14.912Z,991.5
2022-11-05T11:15:33.091Z,991.5
2022-11-05T11:20:52.433Z,991.5
2022-11-05T11:26:12.497Z,991.5
2022-11-05T11:32:46.631Z,991.6
2022-11-05T11:36:50.313Z,991.6
2022-11-05T11:42:09.228Z,991.7
2022-11-05T11:47:28.629Z,991.7
2022-11-05T11:52:47.781Z,991.8
2022-11-05T11:58:16.830Z,991.9
2022-11-05T12:03:25.820Z,991.9
2022-11-05T12:08:46.176Z,992
2022-11-05T12:14:04.424Z,991.9
2022-11-05T12:19:24.045Z,992
2022-11-05T12:24:42.503Z,991.9
2022-11-05T12:30:01.916Z,991.9
2022-11-05T12:35:20.520Z,991.8
2022-11-05T12:40:40.280Z,991.8
2022-11-05T12:46:00.001Z,991.8
2022-11-05T12:51:18.277Z,991.8
2022-11-05T12:56:38.011Z,991.8
2022-11-05T13:01:57.808Z,991.8
2022-11-05T13:07:17.354Z,991.8
2022-11-05T13:12:36.498Z,991.8
2022-11-05T13:18:05.410Z,991.8
2022-11-05T13:23:15.329Z,991.9
2022-11-05T13:28:34.608Z,991.9
2022-11-05T13:33:53.428Z,992
2022-11-05T13:39:13.148Z,992
2022-11-05T13:44:32.436Z,992
2022-11-05T13:49:51.506Z,992
2022-11-05T13:55:11.214Z,992
2022-11-05T14:00:30.632Z,992.1
2022-11-05T14:05:50.063Z,992.2
2022-11-05T14:11:10.006Z,992.1
2022-11-05T14:16:28.374Z,992
2022-11-05T14:21:47.391Z,992.1
2022-11-05T14:27:06.155Z,992.1
2022-11-05T14:32:25.873Z,992.1
2022-11-05T14:37:44.854Z,992.1
2022-11-05T14:43:04.552Z,992.2
2022-11-05T14:48:23.779Z,992.2
2022-11-05T14:53:42.693Z,992.3
2022-11-05T14:59:01.949Z,992.3
2022-11-05T15:04:21.093Z,992.3
2022-11-05T15:09:41.381Z,992.4
2022-11-05T15:15:00.258Z,992.5
2022-11-05T15:20:19.000Z,992.5
2022-11-05T15:25:50.373Z,992.5
2022-11-05T15:30:56.996Z,992.5
2022-11-05T15:36:15.945Z,992.6
2022-11-05T15:41:35.228Z,992.6
2022-11-05T15:46:54.321Z,992.6
2022-11-05T15:52:14.269Z,992.6
2022-11-05T15:57:32.198Z,992.6
2022-11-05T16:02:51.917Z,992.6
2022-11-05T16:08:11.706Z,992.6
2022-11-05T16:13:30.766Z,992.7
2022-11-05T16:18:49.908Z,992.9
2022-11-05T16:24:10.311Z,993
2022-11-05T16:29:28.647Z,993
2022-11-05T16:34:48.282Z,992.9
2022-11-05T16:40:08.230Z,992.8
2022-11-05T16:45:27.541Z,993.1
2022-11-05T16:50:47.148Z,993
2022-11-05T16:57:21.305Z,993.1
2022-11-05T17:01:25.372Z,993.1
2022-11-05T17:06:44.928Z,993.1
2022-11-05T17:12:04.089Z,993.2
2022-11-05T17:17:23.095Z,993.1
2022-11-05T17:22:42.605Z,993.2
2022-11-05T17:28:00.883Z,993.2
2022-11-05T17:33:20.451Z,993.4
2022-11-05T17:38:39.088Z,993.5
2022-11-05T17:43:58.440Z,993.5
2022-11-05T17:49:17.358Z,993.5
2022-11-05T17:54:37.267Z,993.6
2022-11-05T17:59:56.957Z,993.6
2022-11-05T18:05:16.663Z,993.6
2022-11-05T18:10:35.456Z,993.7
2022-11-05T18:17:09.605Z,993.7
2022-11-05T18:21:13.426Z,993.7
2022-11-05T18:26:33.016Z,993.8
2022-11-05T18:31:52.535Z,993.8
2022-11-05T18:37:11.209Z,993.8
2022-11-05T18:42:30.247Z,993.8
2022-11-05T18:47:49.431Z,993.7
2022-11-05T18:53:08.432Z,993.8
2022-11-05T18:58:27.758Z,993.8
2022-11-05T19:03:46.692Z,993.8
2022-11-05T19:09:06.430Z,993.9
2022-11-05T19:14:25.822Z,993.9
2022-11-05T19:19:45.184Z,993.9
2022-11-05T19:25:04.693Z,994
2022-11-05T19:30:25.085Z,994
2022-11-05T19:35:44.635Z,994
2022-11-05T19:41:04.371Z,994
2022-11-05T19:48:02.948Z,994
2022-11-05T19:51:43.159Z,994
2022-11-05T19:57:02.064Z,994
2022-11-05T20:02:20.475Z,994
2022-11-05T20:07:39.893Z,994.1
2022-11-05T20:12:58.959Z,994.1
2022-11-05T20:18:18.027Z,994.2
2022-11-05T20:23:37.208Z,994.3
2022-11-05T20:28:56.346Z,994.3
2022-11-05T20:34:15.496Z,994.3
2022-11-05T20:39:35.260Z,994.2
2022-11-05T20:44:53.762Z,994.2
2022-11-05T20:50:12.583Z,994.2
2022-11-05T20:55:31.105Z,994.3
2022-11-05T21:00:50.657Z,994.3
2022-11-05T21:06:09.573Z,994.3
2022-11-05T21:11:29.019Z,994.3
2022-11-05T21:16:47.854Z,994.3
2022-11-05T21:22:06.789Z,994.3
2022-11-05T21:27:26.584Z,994.3
2022-11-05T21:32:46.331Z,994.3
2022-11-05T21:38:05.372Z,994.2
2022-11-05T21:43:24.818Z,994.2
2022-11-05T21:48:44.735Z,994.3
2022-11-05T21:54:04.162Z,994.2
2022-11-05T21:59:23.658Z,994.3
2022-11-05T22:04:42.742Z,994.2
2022-11-05T22:10:01.923Z,994.2
2022-11-05T22:15:21.812Z,994.2
2022-11-05T22:20:40.378Z,994.2
2022-11-05T22:25:59.718Z,994.2
2022-11-05T22:31:19.036Z,994.2
2022-11-05T22:36:37.817Z,994.1
2022-11-05T22:41:57.534Z,994.1
2022-11-05T22:47:17.352Z,994.1
2022-11-05T22:52:36.674Z,994.1
2022-11-05T22:57:56.311Z,994.1
2022-11-05T23:03:16.860Z,994.1
2022-11-05T23:08:35.927Z,994.1
2022-11-05T23:13:54.814Z,994.1
2022-11-05T23:19:13.818Z,994.2
2022-11-05T23:24:32.535Z,994.1
2022-11-05T23:29:52.119Z,994.1
2022-11-05T23:35:11.803Z,994
2022-11-05T23:40:30.384Z,993.9
2022-11-05T23:45:49.897Z,993.9
2022-11-05T23:51:08.977Z,993.9
2022-11-05T23:56:28.526Z,993.8
